createdAt,value
2019-04-14T00:01:30.475Z,51.65
2019-04-14T00:03:57.229Z,51.60
2019-04-14T00:06:24.400Z,51.59
2019-04-14T00:08:52.130Z,51.61
2019-04-14T00:11:19.131Z,51.60
2019-04-14T00:13:45.771Z,51.59
2019-04-14T00:16:12.347Z,51.58
2019-04-14T00:18:38.956Z,51.54
2019-04-14T00:21:06.572Z,51.56
2019-04-14T00:23:33.242Z,51.59
2019-04-14T00:26:00.788Z,51.56
2019-04-14T00:28:27.499Z,51.52
2019-04-14T00:30:54.077Z,51.55
2019-04-14T00:33:21.368Z,51.52
2019-04-14T00:35:48.034Z,51.58
2019-04-14T00:38:15.198Z,51.51
2019-04-14T00:40:43.178Z,51.49
2019-04-14T00:43:09.894Z,51.51
2019-04-14T00:45:42.643Z,51.45
2019-04-14T00:48:09.784Z,51.43
2019-04-14T00:50:34.099Z,51.45
2019-04-14T00:53:01.195Z,51.46
2019-04-14T00:55:27.938Z,51.61
2019-04-14T00:57:55.118Z,51.73
2019-04-14T01:00:21.994Z,51.70
2019-04-14T01:02:49.377Z,51.93
2019-04-14T01:05:15.983Z,51.87
2019-04-14T01:07:43.435Z,51.91
2019-04-14T01:10:10.433Z,51.96
2019-04-14T01:12:37.115Z,52.02
2019-04-14T01:15:04.906Z,52.05
2019-04-14T01:17:31.639Z,52.30
2019-04-14T01:19:59.234Z,52.08
2019-04-14T01:22:27.002Z,52.05
2019-04-14T01:24:53.653Z,52.19
2019-04-14T01:27:21.100Z,52.14
2019-04-14T01:29:47.690Z,52.16
2019-04-14T01:32:15.380Z,52.20
2019-04-14T01:34:43.304Z,52.10
2019-04-14T01:37:10.104Z,52.05
2019-04-14T01:39:37.184Z,52.04
2019-04-14T01:42:04.931Z,51.94
2019-04-14T01:44:31.604Z,52.01
2019-04-14T01:46:58.802Z,52.16
2019-04-14T01:49:26.769Z,52.14
2019-04-14T01:51:53.550Z,52.22
2019-04-14T01:54:21.324Z,52.10
2019-04-14T01:56:49.050Z,52.16
2019-04-14T01:59:15.803Z,52.21
2019-04-14T02:01:42.379Z,52.21
2019-04-14T02:04:09.508Z,52.25
2019-04-14T02:06:36.209Z,52.29
2019-04-14T02:09:03.290Z,52.30
2019-04-14T02:11:31.233Z,52.35
2019-04-14T02:13:59.120Z,52.45
2019-04-14T02:16:34.870Z,52.42
2019-04-14T02:18:55.659Z,52.43
2019-04-14T02:21:23.757Z,52.52
2019-04-14T02:23:51.780Z,52.39
2019-04-14T02:26:19.673Z,52.41
2019-04-14T02:28:46.465Z,52.42
2019-04-14T02:31:30.085Z,52.43
2019-04-14T02:34:07.537Z,52.44
2019-04-14T02:36:41.727Z,52.44
2019-04-14T02:39:10.394Z,52.61
2019-04-14T02:41:43.603Z,52.55
2019-04-14T02:44:04.640Z,52.61
2019-04-14T02:46:32.201Z,52.61
2019-04-14T02:48:58.787Z,52.58
2019-04-14T02:51:27.207Z,52.57
2019-04-14T02:53:59.252Z,53.22
2019-04-14T02:56:24.941Z,52.88
2019-04-14T02:58:51.952Z,52.98
2019-04-14T03:01:27.669Z,52.88
2019-04-14T03:03:46.804Z,52.85
2019-04-14T03:06:14.677Z,52.76
2019-04-14T03:11:09.483Z,52.71
2019-04-14T03:16:17.491Z,52.58
2019-04-14T03:21:04.364Z,52.77
2019-04-14T03:23:51.415Z,52.61
2019-04-14T03:25:57.268Z,52.62
2019-04-14T03:28:33.922Z,52.58
2019-04-14T03:31:33.242Z,52.57
2019-04-14T03:33:48.418Z,52.66
2019-04-14T03:36:17.205Z,52.67
2019-04-14T03:38:26.321Z,52.77
2019-04-14T03:41:06.766Z,52.62
2019-04-14T03:45:54.026Z,52.65
2019-04-14T03:50:45.976Z,52.74
2019-04-14T03:53:19.097Z,52.58
2019-04-14T03:55:28.376Z,52.71
2019-04-14T03:57:43.966Z,52.72
2019-04-14T04:00:11.646Z,52.54
2019-04-14T04:02:38.388Z,52.57
2019-04-14T04:05:06.314Z,52.55
2019-04-14T04:07:34.103Z,52.63
2019-04-14T04:10:00.952Z,52.47
2019-04-14T04:12:27.569Z,52.54
2019-04-14T04:14:55.209Z,52.49
2019-04-14T04:17:21.911Z,52.43
2019-04-14T04:19:49.194Z,52.40
2019-04-14T04:22:17.102Z,52.41
2019-04-14T04:24:43.816Z,52.25
2019-04-14T04:27:11.092Z,52.12
2019-04-14T04:29:37.791Z,51.90
2019-04-14T04:32:05.589Z,51.63
2019-04-14T04:34:32.332Z,51.63
2019-04-14T04:36:59.594Z,51.28
2019-04-14T04:39:26.242Z,51.19
2019-04-14T04:41:53.778Z,51.30
2019-04-14T04:44:20.577Z,51.21
2019-04-14T04:46:48.285Z,51.03
2019-04-14T04:49:20.512Z,50.95
2019-04-14T04:51:44.259Z,50.71
2019-04-14T04:54:11.031Z,50.47
2019-04-14T04:56:38.354Z,50.63
2019-04-14T04:59:05.437Z,50.16
2019-04-14T05:01:32.122Z,50.14
2019-04-14T05:03:58.706Z,49.61
2019-04-14T05:06:26.483Z,49.64
2019-04-14T05:08:54.391Z,49.27
2019-04-14T05:11:21.087Z,49.50
2019-04-14T05:13:48.783Z,49.10
2019-04-14T05:16:15.537Z,49.02
2019-04-14T05:18:42.119Z,48.85
2019-04-14T05:21:08.694Z,48.32
2019-04-14T05:23:35.273Z,48.33
2019-04-14T05:26:02.743Z,48.03
2019-04-14T05:28:29.533Z,47.65
2019-04-14T05:30:56.880Z,47.84
2019-04-14T05:33:24.926Z,48.22
2019-04-14T05:35:51.706Z,47.97
2019-04-14T05:38:19.043Z,47.84
2019-04-14T05:40:45.874Z,46.97
2019-04-14T05:43:17.118Z,47.07
2019-04-14T05:45:41.641Z,46.20
2019-04-14T05:48:09.611Z,46.86
2019-04-14T05:50:36.421Z,46.71
2019-04-14T05:53:04.261Z,46.32
2019-04-14T05:55:30.967Z,46.33
2019-04-14T05:57:57.552Z,45.80
2019-04-14T06:00:24.161Z,45.56
2019-04-14T06:02:50.787Z,45.79
2019-04-14T06:05:17.401Z,45.93
2019-04-14T06:07:43.971Z,45.18
2019-04-14T06:10:10.567Z,45.67
2019-04-14T06:12:37.148Z,44.70
2019-04-14T06:15:03.764Z,44.81
2019-04-14T06:17:30.346Z,44.44
2019-04-14T06:19:56.934Z,44.68
2019-04-14T06:22:23.508Z,44.83
2019-04-14T06:24:50.099Z,45.09
2019-04-14T06:27:16.681Z,44.63
2019-04-14T06:29:43.291Z,44.75
2019-04-14T06:32:09.865Z,44.21
2019-04-14T06:34:36.463Z,43.91
2019-04-14T06:37:03.045Z,44.97
2019-04-14T06:39:31.141Z,44.88
2019-04-14T06:41:57.718Z,44.62
2019-04-14T06:44:24.293Z,44.20
2019-04-14T06:46:50.959Z,44.50
2019-04-14T06:49:17.549Z,44.54
2019-04-14T06:51:44.120Z,44.39
2019-04-14T06:54:10.693Z,44.13
2019-04-14T06:56:37.279Z,44.16
2019-04-14T06:59:03.861Z,43.62
2019-04-14T07:01:30.437Z,43.16
2019-04-14T07:03:57.013Z,43.10
2019-04-14T07:06:23.600Z,42.19
2019-04-14T07:08:50.196Z,42.38
2019-04-14T07:11:16.822Z,41.71
2019-04-14T07:13:47.920Z,40.94
2019-04-14T07:16:11.702Z,41.27
2019-04-14T07:18:38.265Z,41.99
2019-04-14T07:21:04.850Z,41.56
2019-04-14T07:23:31.416Z,41.44
2019-04-14T07:25:58.001Z,39.97
2019-04-14T07:28:24.584Z,40.12
2019-04-14T07:30:51.162Z,39.72
2019-04-14T07:33:17.746Z,40.50
2019-04-14T07:35:44.431Z,40.04
2019-04-14T07:38:11.013Z,40.45
2019-04-14T07:40:37.621Z,40.15
2019-04-14T07:43:04.204Z,40.09
2019-04-14T07:45:30.778Z,40.18
2019-04-14T07:47:57.377Z,39.04
2019-04-14T07:50:23.953Z,39.00
2019-04-14T07:52:50.545Z,39.97
2019-04-14T07:55:17.117Z,39.54
2019-04-14T07:57:52.673Z,38.89
2019-04-14T08:00:19.248Z,39.02
2019-04-14T08:02:45.835Z,39.22
2019-04-14T08:05:12.423Z,39.81
2019-04-14T08:07:39.011Z,39.99
2019-04-14T08:10:05.595Z,39.64
2019-04-14T08:12:35.055Z,39.34
2019-04-14T08:15:00.471Z,38.97
2019-04-14T08:17:27.055Z,38.19
2019-04-14T08:19:53.658Z,38.76
2019-04-14T08:22:20.225Z,37.71
2019-04-14T08:24:46.810Z,37.78
2019-04-14T08:27:13.389Z,36.31
2019-04-14T08:29:39.958Z,36.75
2019-04-14T08:32:06.535Z,37.47
2019-04-14T08:34:33.111Z,35.91
2019-04-14T08:36:59.689Z,35.04
2019-04-14T08:39:26.262Z,36.29
2019-04-14T08:41:52.846Z,35.91
2019-04-14T08:44:19.425Z,35.37
2019-04-14T08:46:46.008Z,34.43
2019-04-14T08:49:12.591Z,34.42
2019-04-14T08:51:39.210Z,33.95
2019-04-14T08:54:05.789Z,34.16
2019-04-14T08:56:32.377Z,34.67
2019-04-14T08:58:58.952Z,33.38
2019-04-14T09:01:25.547Z,34.90
2019-04-14T09:03:52.131Z,33.56
2019-04-14T09:06:18.751Z,34.98
2019-04-14T09:08:45.327Z,31.64
2019-04-14T09:11:11.946Z,30.68
2019-04-14T09:13:38.517Z,31.76
2019-04-14T09:16:05.117Z,31.07
2019-04-14T09:18:31.679Z,31.34
2019-04-14T09:20:58.297Z,32.02
2019-04-14T09:23:24.866Z,32.08
2019-04-14T09:25:51.518Z,32.03
2019-04-14T09:28:18.096Z,31.37
2019-04-14T09:30:44.736Z,31.35
2019-04-14T09:33:11.311Z,30.43
2019-04-14T09:35:37.923Z,30.23
2019-04-14T09:38:04.495Z,29.06
2019-04-14T09:40:31.106Z,29.19
2019-04-14T09:42:57.877Z,29.33
2019-04-14T09:45:24.454Z,28.90
2019-04-14T09:47:51.027Z,28.47
2019-04-14T09:50:17.595Z,29.01
2019-04-14T09:52:44.275Z,29.05
2019-04-14T09:55:10.836Z,28.29
2019-04-14T09:57:37.472Z,27.63
2019-04-14T10:00:04.127Z,27.31
2019-04-14T10:02:30.699Z,26.84
2019-04-14T10:04:57.270Z,26.53
2019-04-14T10:07:24.050Z,27.42
2019-04-14T10:09:50.714Z,27.82
2019-04-14T10:12:17.432Z,26.04
2019-04-14T10:14:44.010Z,26.91
2019-04-14T10:17:10.670Z,27.87
2019-04-14T10:19:37.342Z,27.55
2019-04-14T10:22:03.936Z,26.25
2019-04-14T10:24:30.502Z,25.64
2019-04-14T10:26:57.081Z,26.16
2019-04-14T10:29:23.653Z,26.71
2019-04-14T10:31:50.223Z,22.46
2019-04-14T10:34:16.796Z,23.56
2019-04-14T10:36:43.374Z,23.23
2019-04-14T10:39:09.942Z,23.90
2019-04-14T10:41:36.543Z,23.98
2019-04-14T10:44:03.114Z,23.06
2019-04-14T10:46:29.739Z,21.38
2019-04-14T10:48:56.481Z,20.66
2019-04-14T10:51:29.959Z,22.25
2019-04-14T10:53:51.451Z,20.05
2019-04-14T10:56:18.037Z,21.17
2019-04-14T10:58:44.626Z,19.73
2019-04-14T11:01:11.200Z,17.90
2019-04-14T11:03:37.813Z,16.71
2019-04-14T11:06:04.451Z,18.92
2019-04-14T11:08:31.051Z,16.96
2019-04-14T11:10:57.626Z,19.39
2019-04-14T11:13:24.223Z,18.08
2019-04-14T11:15:50.794Z,18.30
2019-04-14T11:18:17.408Z,17.81
2019-04-14T11:20:43.992Z,18.01
2019-04-14T11:23:10.600Z,14.79
2019-04-14T11:25:37.173Z,11.52
2019-04-14T11:28:03.783Z,11.75
2019-04-14T11:30:30.371Z,15.76
2019-04-14T11:32:56.963Z,13.24
2019-04-14T11:35:23.536Z,13.17
2019-04-14T11:37:50.162Z,13.73
2019-04-14T11:40:16.732Z,11.08
2019-04-14T11:42:52.148Z,12.95
2019-04-14T11:45:11.741Z,13.07
2019-04-14T11:47:38.312Z,13.17
2019-04-14T11:50:04.989Z,12.93
2019-04-14T11:52:31.562Z,10.88
2019-04-14T11:54:58.185Z,9.54
2019-04-14T11:57:24.776Z,10.50
2019-04-14T11:59:51.437Z,11.50
2019-04-14T12:02:18.013Z,11.45
2019-04-14T12:04:44.587Z,8.63
2019-04-14T12:07:11.152Z,9.47
2019-04-14T12:09:37.729Z,9.54
2019-04-14T12:12:04.295Z,10.89
2019-04-14T12:14:30.885Z,8.00
2019-04-14T12:16:57.458Z,10.70
2019-04-14T12:19:24.025Z,10.97
2019-04-14T12:21:50.593Z,8.23
2019-04-14T12:24:17.170Z,10.22
2019-04-14T12:26:43.745Z,9.11
2019-04-14T12:29:10.328Z,8.35
2019-04-14T12:31:37.414Z,6.13
2019-04-14T12:34:04.044Z,7.13
2019-04-14T12:36:30.616Z,9.11
2019-04-14T12:38:57.232Z,9.04
2019-04-14T12:41:24.170Z,6.58
2019-04-14T12:43:50.903Z,7.58
2019-04-14T12:46:17.498Z,5.95
2019-04-14T12:48:44.078Z,7.65
2019-04-14T12:51:10.643Z,5.99
2019-04-14T12:53:37.227Z,6.56
2019-04-14T12:56:03.797Z,5.97
2019-04-14T12:58:30.364Z,6.78
2019-04-14T13:00:58.052Z,6.29
2019-04-14T13:03:24.630Z,4.20
2019-04-14T13:05:51.207Z,5.10
2019-04-14T13:08:17.776Z,5.74
2019-04-14T13:10:44.376Z,5.59
2019-04-14T13:13:10.952Z,5.23
2019-04-14T13:15:37.557Z,5.73
2019-04-14T13:18:04.155Z,3.89
2019-04-14T13:20:30.748Z,2.32
2019-04-14T13:22:57.327Z,4.68
2019-04-14T13:25:23.945Z,4.02
2019-04-14T13:27:50.523Z,4.43
2019-04-14T13:30:17.114Z,4.25
2019-04-14T13:32:44.757Z,4.69
2019-04-14T13:35:11.357Z,4.88
2019-04-14T13:37:37.917Z,4.36
2019-04-14T13:40:04.532Z,4.28
2019-04-14T13:42:31.104Z,4.34
2019-04-14T13:44:57.687Z,3.23
2019-04-14T13:47:24.255Z,3.59
2019-04-14T13:49:50.844Z,3.62
2019-04-14T13:52:17.417Z,3.33
2019-04-14T13:54:44.022Z,2.75
2019-04-14T13:57:10.592Z,4.08
2019-04-14T13:59:37.174Z,4.26
2019-04-14T14:02:03.742Z,2.32
2019-04-14T14:04:30.323Z,3.27
2019-04-14T14:06:56.890Z,4.74
2019-04-14T14:09:23.467Z,4.72
2019-04-14T14:11:50.040Z,4.77
2019-04-14T14:14:16.608Z,4.80
2019-04-14T14:16:43.295Z,4.90
2019-04-14T14:19:09.991Z,5.05
2019-04-14T14:21:36.617Z,5.71
2019-04-14T14:24:03.191Z,6.20
2019-04-14T14:26:29.811Z,5.92
2019-04-14T14:28:56.422Z,6.24
2019-04-14T14:31:23.020Z,5.86
2019-04-14T14:33:49.613Z,6.78
2019-04-14T14:36:16.277Z,7.01
2019-04-14T14:38:42.853Z,7.12
2019-04-14T14:41:09.463Z,6.77
2019-04-14T14:43:36.084Z,6.47
2019-04-14T14:46:02.681Z,6.68
2019-04-14T14:48:29.239Z,6.80
2019-04-14T14:50:55.870Z,6.75
2019-04-14T14:53:22.507Z,6.07
2019-04-14T14:55:49.088Z,5.73
2019-04-14T14:58:15.674Z,5.61
2019-04-14T15:00:42.261Z,6.07
2019-04-14T15:03:08.845Z,5.26
2019-04-14T15:05:35.419Z,5.04
2019-04-14T15:08:01.994Z,5.48
2019-04-14T15:10:28.554Z,5.08
2019-04-14T15:12:55.131Z,5.33
2019-04-14T15:15:21.701Z,5.94
2019-04-14T15:17:48.278Z,5.75
2019-04-14T15:20:14.859Z,5.93
2019-04-14T15:22:41.483Z,5.60
2019-04-14T15:25:08.061Z,5.21
2019-04-14T15:27:34.629Z,4.88
2019-04-14T15:30:01.222Z,5.22
2019-04-14T15:32:27.842Z,5.38
2019-04-14T15:34:54.462Z,5.63
2019-04-14T15:37:21.031Z,5.77
2019-04-14T15:39:47.601Z,6.53
2019-04-14T15:42:14.207Z,7.54
2019-04-14T15:44:40.774Z,8.50
2019-04-14T15:47:07.369Z,9.54
2019-04-14T15:49:34.055Z,10.48
2019-04-14T15:52:00.662Z,11.31
2019-04-14T15:54:27.239Z,12.34
2019-04-14T15:56:53.860Z,12.70
2019-04-14T15:59:20.437Z,13.67
2019-04-14T16:01:47.016Z,14.26
2019-04-14T16:04:13.608Z,15.03
2019-04-14T16:06:40.161Z,15.17
2019-04-14T16:09:06.820Z,15.74
2019-04-14T16:11:33.393Z,16.78
2019-04-14T16:14:00.007Z,17.02
2019-04-14T16:16:26.618Z,17.46
2019-04-14T16:18:53.235Z,17.56
2019-04-14T16:21:19.810Z,18.09
2019-04-14T16:23:50.843Z,18.25
2019-04-14T16:26:14.723Z,19.41
2019-04-14T16:28:41.329Z,19.42
2019-04-14T16:31:07.918Z,19.56
2019-04-14T16:33:34.601Z,19.84
2019-04-14T16:36:01.205Z,20.10
2019-04-14T16:38:27.771Z,19.85
2019-04-14T16:40:54.362Z,20.51
2019-04-14T16:43:21.005Z,20.51
2019-04-14T16:45:47.581Z,20.28
2019-04-14T16:48:14.158Z,20.32
2019-04-14T16:50:40.745Z,20.24
2019-04-14T16:53:07.315Z,20.08
2019-04-14T16:55:33.883Z,20.82
2019-04-14T16:58:00.528Z,20.50
2019-04-14T17:00:27.232Z,21.22
2019-04-14T17:02:53.810Z,21.05
2019-04-14T17:05:20.414Z,21.31
2019-04-14T17:07:46.985Z,21.27
2019-04-14T17:10:13.660Z,21.76
2019-04-14T17:12:40.287Z,21.71
2019-04-14T17:15:06.910Z,22.44
2019-04-14T17:17:33.491Z,22.05
2019-04-14T17:20:00.141Z,22.42
2019-04-14T17:22:26.740Z,22.26
2019-04-14T17:24:53.317Z,22.19
2019-04-14T17:27:19.880Z,23.01
2019-04-14T17:29:46.464Z,22.27
2019-04-14T17:32:13.036Z,22.44
2019-04-14T17:34:39.644Z,22.52
2019-04-14T17:37:06.222Z,22.79
2019-04-14T17:39:32.825Z,22.91
2019-04-14T17:41:59.404Z,22.75
2019-04-14T17:44:25.973Z,23.12
2019-04-14T17:46:52.553Z,23.72
2019-04-14T17:49:19.130Z,23.34
2019-04-14T17:51:45.703Z,23.83
2019-04-14T17:54:12.314Z,23.53
2019-04-14T17:56:38.891Z,24.10
2019-04-14T17:59:05.480Z,24.36
2019-04-14T18:01:32.061Z,24.45
2019-04-14T18:03:58.669Z,24.92
2019-04-14T18:06:25.314Z,25.76
2019-04-14T18:08:51.967Z,24.73
2019-04-14T18:11:20.355Z,25.06
2019-04-14T18:13:46.987Z,25.75
2019-04-14T18:16:13.620Z,25.54
2019-04-14T18:18:40.270Z,25.86
2019-04-14T18:21:06.881Z,25.90
2019-04-14T18:23:33.463Z,25.94
2019-04-14T18:26:00.033Z,26.81
2019-04-14T18:28:26.610Z,26.67
2019-04-14T18:30:53.186Z,27.26
2019-04-14T18:33:19.783Z,27.55
2019-04-14T18:35:46.349Z,27.25
2019-04-14T18:38:12.913Z,27.81
2019-04-14T18:40:39.509Z,27.14
2019-04-14T18:43:06.164Z,27.74
2019-04-14T18:45:32.769Z,27.69
2019-04-14T18:47:59.355Z,27.98
2019-04-14T18:50:25.923Z,27.68
2019-04-14T18:52:52.504Z,27.70
2019-04-14T18:55:19.082Z,27.74
2019-04-14T18:57:45.647Z,27.73
2019-04-14T19:00:12.226Z,28.30
2019-04-14T19:02:38.876Z,27.90
2019-04-14T19:05:05.471Z,27.67
2019-04-14T19:07:32.088Z,28.13
2019-04-14T19:09:58.666Z,28.06
2019-04-14T19:12:25.268Z,27.89
2019-04-14T19:14:51.838Z,27.72
2019-04-14T19:17:18.425Z,28.12
2019-04-14T19:19:45.002Z,28.08
2019-04-14T19:22:11.625Z,27.74
2019-04-14T19:24:38.246Z,27.75
2019-04-14T19:27:05.542Z,27.91
2019-04-14T19:29:32.116Z,28.26
2019-04-14T19:31:58.709Z,28.09
2019-04-14T19:34:25.286Z,28.13
2019-04-14T19:36:53.031Z,27.86
2019-04-14T19:39:19.604Z,28.08
2019-04-14T19:41:46.179Z,28.21
2019-04-14T19:44:12.766Z,28.25
2019-04-14T19:46:39.334Z,28.28
2019-04-14T19:49:05.927Z,28.24
2019-04-14T19:51:32.470Z,28.25
2019-04-14T19:53:59.062Z,27.94
2019-04-14T19:56:25.633Z,27.79
2019-04-14T19:58:52.784Z,27.68
2019-04-14T20:01:19.350Z,27.56
2019-04-14T20:03:45.932Z,27.41
2019-04-14T20:06:12.509Z,27.50
2019-04-14T20:08:39.092Z,27.34
2019-04-14T20:11:05.700Z,27.83
2019-04-14T20:13:32.267Z,28.00
2019-04-14T20:15:58.875Z,28.11
2019-04-14T20:18:25.502Z,28.14
2019-04-14T20:20:52.075Z,28.13
2019-04-14T20:23:18.765Z,28.51
2019-04-14T20:25:45.462Z,28.61
2019-04-14T20:28:12.064Z,28.48
2019-04-14T20:30:38.651Z,28.45
2019-04-14T20:33:05.225Z,28.75
2019-04-14T20:35:31.794Z,28.77
2019-04-14T20:37:58.385Z,28.70
2019-04-14T20:40:24.936Z,28.90
2019-04-14T20:42:51.505Z,28.80
2019-04-14T20:45:18.093Z,28.91
2019-04-14T20:47:44.659Z,29.02
2019-04-14T20:50:11.250Z,29.10
2019-04-14T20:52:37.818Z,28.93
2019-04-14T20:55:04.390Z,29.23
2019-04-14T20:57:30.976Z,29.37
2019-04-14T20:59:57.549Z,29.61
2019-04-14T21:02:24.180Z,29.81
2019-04-14T21:04:50.861Z,29.99
2019-04-14T21:07:17.474Z,29.86
2019-04-14T21:09:44.040Z,29.69
2019-04-14T21:12:10.622Z,29.78
2019-04-14T21:14:37.231Z,29.75
2019-04-14T21:17:03.807Z,29.85
2019-04-14T21:19:30.400Z,30.15
2019-04-14T21:21:57.034Z,30.17
2019-04-14T21:24:23.628Z,30.18
2019-04-14T21:26:50.200Z,30.38
2019-04-14T21:29:16.779Z,30.37
2019-04-14T21:31:43.395Z,30.58
2019-04-14T21:34:09.978Z,30.46
2019-04-14T21:36:36.561Z,30.47
2019-04-14T21:39:03.138Z,30.55
2019-04-14T21:41:29.707Z,30.52
2019-04-14T21:43:56.304Z,31.05
2019-04-14T21:46:22.987Z,31.25
2019-04-14T21:48:49.558Z,31.55
2019-04-14T21:51:16.158Z,31.52
2019-04-14T21:53:42.724Z,31.79
2019-04-14T21:56:13.635Z,31.69
2019-04-14T21:58:37.638Z,31.88
2019-04-14T22:01:04.247Z,32.35
2019-04-14T22:03:30.835Z,32.63
2019-04-14T22:05:57.398Z,32.88
2019-04-14T22:08:25.442Z,32.54
2019-04-14T22:10:52.232Z,33.65
2019-04-14T22:13:18.831Z,32.65
2019-04-14T22:15:45.483Z,33.76
2019-04-14T22:18:12.083Z,33.17
2019-04-14T22:20:38.666Z,33.58
2019-04-14T22:23:05.280Z,33.70
2019-04-14T22:25:31.855Z,34.31
2019-04-14T22:27:58.466Z,34.66
2019-04-14T22:30:25.045Z,34.40
2019-04-14T22:32:51.647Z,34.42
2019-04-14T22:35:18.217Z,34.70
2019-04-14T22:37:44.832Z,35.68
2019-04-14T22:40:11.415Z,35.79
2019-04-14T22:42:38.031Z,35.26
2019-04-14T22:45:04.644Z,36.20
2019-04-14T22:47:31.230Z,35.05
2019-04-14T22:49:57.805Z,35.13
2019-04-14T22:52:24.391Z,35.48
2019-04-14T22:54:51.000Z,36.05
2019-04-14T22:57:17.611Z,36.12
2019-04-14T22:59:44.188Z,36.42
2019-04-14T23:02:10.792Z,35.75
2019-04-14T23:04:37.369Z,36.32
2019-04-14T23:07:03.934Z,36.42
2019-04-14T23:09:30.545Z,37.77
2019-04-14T23:11:57.129Z,37.64
2019-04-14T23:14:23.698Z,37.18
2019-04-14T23:16:50.274Z,38.00
2019-04-14T23:19:16.875Z,38.22
2019-04-14T23:21:43.444Z,37.65
2019-04-14T23:24:10.040Z,37.71
2019-04-14T23:26:36.618Z,38.89
2019-04-14T23:29:03.245Z,38.38
2019-04-14T23:31:29.820Z,38.08
2019-04-14T23:33:56.438Z,39.07
2019-04-14T23:36:23.016Z,38.83
2019-04-14T23:38:49.634Z,39.16
2019-04-14T23:41:16.223Z,38.91
2019-04-14T23:43:43.002Z,38.88
2019-04-14T23:46:09.583Z,39.00
2019-04-14T23:48:36.205Z,39.71
2019-04-14T23:51:02.776Z,39.56
2019-04-14T23:53:29.366Z,39.34
2019-04-14T23:55:55.960Z,39.93
2019-04-14T23:58:22.540Z,41.15
